Eships Agamid — ZDHS9 — position and weather

sailwx.info

Track history (hours):
 
Tides and Currents Weather Stations Pressure Air Temp Water Temp Dewpoint Dewpoint Depression Visibility Wind Speed Wind Dir Waves Ship Positions

Eships Agamid

Last reported at 2015-Jan-30 22:05 UTC. Time now 2015-Jan-31 14:42 UTC.
Position N 46°33' W 002°24'.

Length 128 m; draft 6 m.

Type: Tanker. MMSI: 236355000.

Date/timePositionNaut miles runAvg speedWind from/ knotsBaromVisibWave heightAir tempDewpointWater temp
2015-Jan-30 22:05N 46°33' W 002°24'5 9.7
2015-Jan-30 21:33N 46°30' W 002°19'10 9.6
2015-Jan-30 20:33N 46°24' W 002°08'10 9.6
2015-Jan-30 19:33N 46°17' W 001°57'9 9.4
2015-Jan-30 18:33N 46°11' W 001°47'11 9.0
2015-Jan-30 17:24N 46°07' W 001°33'6 0.2
2015-Jan-29 12:31N 46°08' W 001°42'1313.0
2015-Jan-29 11:32N 46°16' W 001°56'1313.3
2015-Jan-29 10:33N 46°25' W 002°10'13 0.3
2015-Jan-27 20:04N 46°31' W 002°28'813.4
2015-Jan-27 19:27N 46°24' W 002°21'1413.3
2015-Jan-27 18:25N 46°13' W 002°08'96 2.8
2015-Jan-26 08:11N 45°02' W 000°36'3115.8
2015-Jan-26 06:14N 45°29' W 000°56'1714.5
2015-Jan-26 05:04N 45°39' W 001°16'53 7.1
2015-Jan-25 21:33N 46°16' W 002°11'10 9.7
2015-Jan-25 20:33N 46°23' W 002°20'154 3.1
2015-Jan-23 19:33N 48°12' W 005°00'1313.1
2015-Jan-23 18:33N 48°18' W 004°42'10 9.6
2015-Jan-23 17:33N 48°22' W 004°29'2 1.8
2015-Jan-23 16:32N 48°23' W 004°27'0 0.0
2015-Jan-23 15:33N 48°23' W 004°27'0 0.0
2015-Jan-23 14:33N 48°23' W 004°27'0 0.0
2015-Jan-23 13:33N 48°23' W 004°27'0 0.0
2015-Jan-23 12:33N 48°23' W 004°27'0 0.0
2015-Jan-23 11:33N 48°23' W 004°27'0 0.0
2015-Jan-23 10:33N 48°23' W 004°27'0 0.0
2015-Jan-23 09:33N 48°23' W 004°27'0 0.0
2015-Jan-23 08:33N 48°23' W 004°27'0 0.0
2015-Jan-23 07:33N 48°23' W 004°27'0 0.0
2015-Jan-23 06:33N 48°23' W 004°27'0 0.0
2015-Jan-23 05:33N 48°23' W 004°27'0 0.0
2015-Jan-23 04:33N 48°23' W 004°27'0 0.0
2015-Jan-23 03:33N 48°23' W 004°27'0 0.0
2015-Jan-23 02:33N 48°23' W 004°27'0 0.0
2015-Jan-23 01:33N 48°23' W 004°27'0 0.0
2015-Jan-23 00:33N 48°23' W 004°27'0 0.0
2015-Jan-22 23:33N 48°23' W 004°27'0 0.0
2015-Jan-22 22:33N 48°23' W 004°27'0 0.0
2015-Jan-22 21:33N 48°23' W 004°27'0 0.0
2015-Jan-22 20:33N 48°23' W 004°27'0 0.0
2015-Jan-22 19:33N 48°23' W 004°27'0 0.0
2015-Jan-22 18:33N 48°23' W 004°27'0 0.0
2015-Jan-22 17:33N 48°23' W 004°27'0 0.0
2015-Jan-22 16:33N 48°23' W 004°27'6 6.2
2015-Jan-22 15:34N 48°20' W 004°35'1413.6
2015-Jan-22 14:34N 48°14' W 004°54'20 9.7
2015-Jan-22 12:28N 47°56' W 005°05'1313.0
2015-Jan-22 11:29N 47°48' W 004°49'  
Track history (hours):
 
Tides and Currents Weather Stations Pressure Air Temp Water Temp Dewpoint Dewpoint Depression Visibility Wind Speed Wind Dir Waves Ship Positions

Eships Agamid

Last reported at 2015-Jan-30 22:05 UTC. Time now 2015-Jan-31 14:42 UTC.
Position N 46°33' W 002°24'.

Length 128 m; draft 6 m.

Type: Tanker. MMSI: 236355000.

Date/timePositionNaut miles runAvg speedWind from/ knotsBaromVisibWave heightAir tempDewpointWater temp
2015-Jan-30 22:05N 46°33' W 002°24'5 9.7
2015-Jan-30 21:33N 46°30' W 002°19'10 9.6
2015-Jan-30 20:33N 46°24' W 002°08'10 9.6
2015-Jan-30 19:33N 46°17' W 001°57'9 9.4
2015-Jan-30 18:33N 46°11' W 001°47'11 9.0
2015-Jan-30 17:24N 46°07' W 001°33'6 0.2
2015-Jan-29 12:31N 46°08' W 001°42'1313.0
2015-Jan-29 11:32N 46°16' W 001°56'1313.3
2015-Jan-29 10:33N 46°25' W 002°10'13 0.3
2015-Jan-27 20:04N 46°31' W 002°28'813.4
2015-Jan-27 19:27N 46°24' W 002°21'1413.3
2015-Jan-27 18:25N 46°13' W 002°08'96 2.8
2015-Jan-26 08:11N 45°02' W 000°36'3115.8
2015-Jan-26 06:14N 45°29' W 000°56'1714.5
2015-Jan-26 05:04N 45°39' W 001°16'53 7.1
2015-Jan-25 21:33N 46°16' W 002°11'10 9.7
2015-Jan-25 20:33N 46°23' W 002°20'154 3.1
2015-Jan-23 19:33N 48°12' W 005°00'1313.1
2015-Jan-23 18:33N 48°18' W 004°42'10 9.6
2015-Jan-23 17:33N 48°22' W 004°29'2 1.8
2015-Jan-23 16:32N 48°23' W 004°27'0 0.0
2015-Jan-23 15:33N 48°23' W 004°27'0 0.0
2015-Jan-23 14:33N 48°23' W 004°27'0 0.0
2015-Jan-23 13:33N 48°23' W 004°27'0 0.0
2015-Jan-23 12:33N 48°23' W 004°27'0 0.0
2015-Jan-23 11:33N 48°23' W 004°27'0 0.0
2015-Jan-23 10:33N 48°23' W 004°27'0 0.0
2015-Jan-23 09:33N 48°23' W 004°27'0 0.0
2015-Jan-23 08:33N 48°23' W 004°27'0 0.0
2015-Jan-23 07:33N 48°23' W 004°27'0 0.0
2015-Jan-23 06:33N 48°23' W 004°27'0 0.0
2015-Jan-23 05:33N 48°23' W 004°27'0 0.0
2015-Jan-23 04:33N 48°23' W 004°27'0 0.0
2015-Jan-23 03:33N 48°23' W 004°27'0 0.0
2015-Jan-23 02:33N 48°23' W 004°27'0 0.0
2015-Jan-23 01:33N 48°23' W 004°27'0 0.0
2015-Jan-23 00:33N 48°23' W 004°27'0 0.0
2015-Jan-22 23:33N 48°23' W 004°27'0 0.0
2015-Jan-22 22:33N 48°23' W 004°27'0 0.0
2015-Jan-22 21:33N 48°23' W 004°27'0 0.0
2015-Jan-22 20:33N 48°23' W 004°27'0 0.0
2015-Jan-22 19:33N 48°23' W 004°27'0 0.0
2015-Jan-22 18:33N 48°23' W 004°27'0 0.0
2015-Jan-22 17:33N 48°23' W 004°27'0 0.0
2015-Jan-22 16:33N 48°23' W 004°27'6 6.2
2015-Jan-22 15:34N 48°20' W 004°35'1413.6
2015-Jan-22 14:34N 48°14' W 004°54'20 9.7
2015-Jan-22 12:28N 47°56' W 005°05'1313.0
2015-Jan-22 11:29N 47°48' W 004°49'  

Dump ship's entire track history